Forside
METAR-TAF:

METAR-TAF

Lufthavne :

Accra, Ghana

Breddekreds: 05-36N, længdekreds: 000-10W, højde: 68 m

Aktuelle vejr

Denne rapport blev lavet for 1 time og 6 minutter siden, kl. 18:00 UTC
Vind 10 kt fra sydvest
Temperatur 25°C
Fugtighed 89%
Tryk 1014 hPa
Sigt 10 km eller mere
Nogle få skyer i en højde af 1300 ft

METAR: DGAA 221800Z 22010KT 9999 FEW013 25/23 Q1014 NOSIG

Tid: 19:06 (19:06 UTC)

Vejrudsigter

Denne rapport blev lavet for 2 timer og 6 minutter siden, kl. 17:00 UTC
Foreløbig gælder fra 22 på 18 UTC til 23 på 24 UTC
Vind 10 kt fra sydsydvest
Sigt 10 km eller mere
Brudte skyer i en højde af 1200 ft
ændring
fra 22 på 22 UTC til 23 på 00 UTC
Vind 10 kt fra vest
ændring
fra 23 på 02 UTC til 23 på 04 UTC
Sigt 10 km eller mere
ingen skyer under 1500m og ingen cumulonimbus
ændring
fra 23 på 12 UTC til 23 på 14 UTC
Vind 15 kt fra sydsydvest
Brudte skyer i en højde af 1500 ft

TAF: DGAA 221700Z 2218/2324 20010KT 9999 BKN012 BECMG 2222/2300 26010KT BECMG 2302/2304 CAVOK BECMG 2312/2314 20015KT BKN015

Vejrobservationer og prognoser fra mere end 4000 lufthavne (METAR og TAF).

De gule og røde prikker repræsenterer de meteorologiske stationer.

Flyt musen over at se navnet på stationen.

Så klik over at se vejr observationer og prognoser.

At skifte det kort: Klik på de grønne knapper med et sort kors for at zoome ind; på den grønne knap med en bindestreg for at zoome ud; eller på de grønne pile for tilstødende kort.


METAR-TAF: